sensor_id;sensor_type;location;lat;lon;timestamp;pressure;altitude;pressure_sealevel;temperature;humidity
45621;BME280;31345;51.522;10.702;2023-04-19T00:02:02;100060.50;;;8.72;93.45
45621;BME280;31345;51.522;10.702;2023-04-19T00:04:31;100063.41;;;8.64;93.86
45621;BME280;31345;51.522;10.702;2023-04-19T00:07:06;100062.88;;;8.56;93.41
45621;BME280;31345;51.522;10.702;2023-04-19T00:09:38;100052.16;;;8.64;91.93
45621;BME280;31345;51.522;10.702;2023-04-19T00:12:06;100059.28;;;8.58;92.33
45621;BME280;31345;51.522;10.702;2023-04-19T00:14:34;100038.38;;;8.60;91.37
45621;BME280;31345;51.522;10.702;2023-04-19T00:17:02;100042.25;;;8.51;92.42
45621;BME280;31345;51.522;10.702;2023-04-19T00:19:35;100036.81;;;8.56;91.41
45621;BME280;31345;51.522;10.702;2023-04-19T00:22:09;100040.41;;;8.53;91.61
45621;BME280;31345;51.522;10.702;2023-04-19T00:24:42;100042.03;;;8.56;91.69
45621;BME280;31345;51.522;10.702;2023-04-19T00:27:15;100039.88;;;8.45;90.96
45621;BME280;31345;51.522;10.702;2023-04-19T00:29:48;100032.13;;;8.43;92.03
45621;BME280;31345;51.522;10.702;2023-04-19T00:32:21;100034.38;;;8.30;89.65
45621;BME280;31345;51.522;10.702;2023-04-19T00:34:50;100031.00;;;8.28;90.68
45621;BME280;31345;51.522;10.702;2023-04-19T00:37:19;100035.19;;;8.32;90.74
45621;BME280;31345;51.522;10.702;2023-04-19T00:39:46;100027.41;;;8.31;90.86
45621;BME280;31345;51.522;10.702;2023-04-19T00:42:19;100029.50;;;8.23;90.18
45621;BME280;31345;51.522;10.702;2023-04-19T00:44:47;100024.34;;;8.21;91.05
45621;BME280;31345;51.522;10.702;2023-04-19T00:47:15;100025.91;;;8.25;91.02
45621;BME280;31345;51.522;10.702;2023-04-19T00:49:49;100023.50;;;8.20;90.50
45621;BME280;31345;51.522;10.702;2023-04-19T00:52:19;100034.13;;;8.16;89.38
45621;BME280;31345;51.522;10.702;2023-04-19T00:54:52;100016.66;;;8.18;91.08
45621;BME280;31345;51.522;10.702;2023-04-19T00:57:20;100012.31;;;8.18;90.96
45621;BME280;31345;51.522;10.702;2023-04-19T00:59:50;100022.78;;;8.17;91.71
45621;BME280;31345;51.522;10.702;2023-04-19T01:02:18;100019.47;;;8.13;91.12
45621;BME280;31345;51.522;10.702;2023-04-19T01:04:54;100015.09;;;8.14;90.48
45621;BME280;31345;51.522;10.702;2023-04-19T01:07:33;100013.16;;;8.19;91.68
45621;BME280;31345;51.522;10.702;2023-04-19T01:10:07;100024.47;;;8.18;91.86
45621;BME280;31345;51.522;10.702;2023-04-19T01:12:40;100023.69;;;8.16;91.44
45621;BME280;31345;51.522;10.702;2023-04-19T01:15:15;100022.41;;;8.04;92.36
45621;BME280;31345;51.522;10.702;2023-04-19T01:17:43;100021.38;;;8.08;92.73
45621;BME280;31345;51.522;10.702;2023-04-19T01:20:16;100016.22;;;8.06;92.85
45621;BME280;31345;51.522;10.702;2023-04-19T01:22:45;100026.47;;;8.11;92.28
45621;BME280;31345;51.522;10.702;2023-04-19T01:25:13;100025.09;;;8.02;93.18
45621;BME280;31345;51.522;10.702;2023-04-19T01:27:42;100030.19;;;8.05;92.49
45621;BME280;31345;51.522;10.702;2023-04-19T01:30:11;100035.66;;;7.99;91.30
45621;BME280;31345;51.522;10.702;2023-04-19T01:32:38;100039.28;;;7.95;92.14
45621;BME280;31345;51.522;10.702;2023-04-19T01:35:11;100042.06;;;7.90;91.04
45621;BME280;31345;51.522;10.702;2023-04-19T01:37:45;100037.22;;;7.81;91.15
45621;BME280;31345;51.522;10.702;2023-04-19T01:40:18;100034.13;;;7.71;88.37
45621;BME280;31345;51.522;10.702;2023-04-19T01:42:51;100047.88;;;7.75;92.78
45621;BME280;31345;51.522;10.702;2023-04-19T01:45:23;100045.78;;;7.61;92.67
45621;BME280;31345;51.522;10.702;2023-04-19T01:47:51;100050.28;;;7.57;91.33
45621;BME280;31345;51.522;10.702;2023-04-19T01:50:19;100048.88;;;7.47;89.98
45621;BME280;31345;51.522;10.702;2023-04-19T01:52:48;100048.59;;;7.30;89.28
45621;BME280;31345;51.522;10.702;2023-04-19T01:55:16;100051.19;;;7.30;91.94
45621;BME280;31345;51.522;10.702;2023-04-19T01:57:43;100046.19;;;7.26;90.58
45621;BME280;31345;51.522;10.702;2023-04-19T02:00:12;100054.03;;;7.24;90.38
45621;BME280;31345;51.522;10.702;2023-04-19T02:02:40;100051.09;;;7.34;91.86
45621;BME280;31345;51.522;10.702;2023-04-19T02:05:13;100055.72;;;7.25;90.15
45621;BME280;31345;51.522;10.702;2023-04-19T02:07:47;100053.34;;;7.19;90.69
45621;BME280;31345;51.522;10.702;2023-04-19T02:10:20;100054.38;;;7.15;90.17
45621;BME280;31345;51.522;10.702;2023-04-19T02:12:47;100056.00;;;7.17;90.22
45621;BME280;31345;51.522;10.702;2023-04-19T02:15:20;100060.13;;;6.99;91.64
45621;BME280;31345;51.522;10.702;2023-04-19T02:17:48;100065.84;;;6.84;92.12
45621;BME280;31345;51.522;10.702;2023-04-19T02:20:16;100059.59;;;6.64;91.17
45621;BME280;31345;51.522;10.702;2023-04-19T02:22:49;100061.59;;;6.56;92.59
45621;BME280;31345;51.522;10.702;2023-04-19T02:25:22;100059.16;;;6.51;92.92
45621;BME280;31345;51.522;10.702;2023-04-19T02:27:56;100061.06;;;6.46;93.08
45621;BME280;31345;51.522;10.702;2023-04-19T02:30:29;100063.16;;;6.34;92.21
45621;BME280;31345;51.522;10.702;2023-04-19T02:33:02;100061.56;;;6.30;92.40
45621;BME280;31345;51.522;10.702;2023-04-19T02:35:29;100067.78;;;6.24;91.05
45621;BME280;31345;51.522;10.702;2023-04-19T02:37:59;100072.16;;;6.22;92.41
45621;BME280;31345;51.522;10.702;2023-04-19T02:40:32;100068.84;;;6.19;91.93
45621;BME280;31345;51.522;10.702;2023-04-19T02:43:04;100066.97;;;6.22;91.99
45621;BME280;31345;51.522;10.702;2023-04-19T02:45:37;100072.09;;;6.25;91.41
45621;BME280;31345;51.522;10.702;2023-04-19T02:48:10;100082.06;;;6.11;90.99
45621;BME280;31345;51.522;10.702;2023-04-19T02:50:42;100086.41;;;6.10;91.52
45621;BME280;31345;51.522;10.702;2023-04-19T02:53:11;100077.09;;;6.03;88.48
45621;BME280;31345;51.522;10.702;2023-04-19T02:55:40;100082.13;;;6.09;90.15
45621;BME280;31345;51.522;10.702;2023-04-19T02:58:16;100081.38;;;5.77;91.82
45621;BME280;31345;51.522;10.702;2023-04-19T03:00:59;100079.38;;;5.85;92.99
45621;BME280;31345;51.522;10.702;2023-04-19T03:03:45;100073.38;;;5.83;91.62
45621;BME280;31345;51.522;10.702;2023-04-19T03:06:14;100071.44;;;5.90;92.94
45621;BME280;31345;51.522;10.702;2023-04-19T03:08:47;100072.34;;;5.89;92.32
45621;BME280;31345;51.522;10.702;2023-04-19T03:11:17;100079.22;;;5.90;93.84
45621;BME280;31345;51.522;10.702;2023-04-19T03:13:47;100083.41;;;5.94;94.54
45621;BME280;31345;51.522;10.702;2023-04-19T03:16:24;100074.28;;;5.82;95.95
45621;BME280;31345;51.522;10.702;2023-04-19T03:18:56;100064.81;;;5.81;93.76
45621;BME280;31345;51.522;10.702;2023-04-19T03:21:27;100065.84;;;5.75;93.15
45621;BME280;31345;51.522;10.702;2023-04-19T03:23:57;100063.94;;;5.81;93.98
45621;BME280;31345;51.522;10.702;2023-04-19T03:26:38;100058.56;;;5.87;92.54
45621;BME280;31345;51.522;10.702;2023-04-19T03:29:12;100062.81;;;5.89;92.52
45621;BME280;31345;51.522;10.702;2023-04-19T03:31:47;100068.97;;;5.87;94.20
45621;BME280;31345;51.522;10.702;2023-04-19T03:34:16;100058.38;;;5.93;92.93
45621;BME280;31345;51.522;10.702;2023-04-19T03:36:52;100055.78;;;5.93;90.91
45621;BME280;31345;51.522;10.702;2023-04-19T03:39:27;100058.31;;;5.95;92.44
45621;BME280;31345;51.522;10.702;2023-04-19T03:42:03;100049.88;;;5.88;95.24
45621;BME280;31345;51.522;10.702;2023-04-19T03:44:42;100045.44;;;5.92;91.06
45621;BME280;31345;51.522;10.702;2023-04-19T03:47:16;100046.28;;;5.92;90.78
45621;BME280;31345;51.522;10.702;2023-04-19T03:49:48;100051.63;;;5.87;91.11
45621;BME280;31345;51.522;10.702;2023-04-19T03:52:19;100046.03;;;6.00;93.31
45621;BME280;31345;51.522;10.702;2023-04-19T03:54:48;100043.50;;;5.70;88.87
45621;BME280;31345;51.522;10.702;2023-04-19T03:57:28;100042.69;;;5.68;89.24
45621;BME280;31345;51.522;10.702;2023-04-19T04:00:01;100053.47;;;5.84;94.97
45621;BME280;31345;51.522;10.702;2023-04-19T04:02:40;100046.53;;;5.56;92.42
45621;BME280;31345;51.522;10.702;2023-04-19T04:05:13;100044.25;;;5.45;92.37
45621;BME280;31345;51.522;10.702;2023-04-19T04:07:41;100041.59;;;5.16;89.93
45621;BME280;31345;51.522;10.702;2023-04-19T04:10:14;100040.97;;;5.08;88.55
45621;BME280;31345;51.522;10.702;2023-04-19T04:12:43;100036.53;;;4.80;91.65
45621;BME280;31345;51.522;10.702;2023-04-19T04:15:16;100038.25;;;4.79;90.91
45621;BME280;31345;51.522;10.702;2023-04-19T04:17:49;100041.59;;;4.84;92.16
45621;BME280;31345;51.522;10.702;2023-04-19T04:20:21;100038.25;;;4.79;90.45
45621;BME280;31345;51.522;10.702;2023-04-19T04:22:55;100040.41;;;4.63;92.92
45621;BME280;31345;51.522;10.702;2023-04-19T04:25:24;100041.41;;;4.57;91.04
45621;BME280;31345;51.522;10.702;2023-04-19T04:28:05;100050.91;;;4.57;90.84
45621;BME280;31345;51.522;10.702;2023-04-19T04:30:40;100042.25;;;4.58;88.59
45621;BME280;31345;51.522;10.702;2023-04-19T04:33:13;100052.56;;;4.59;91.19
45621;BME280;31345;51.522;10.702;2023-04-19T04:35:50;100036.69;;;4.73;86.28
45621;BME280;31345;51.522;10.702;2023-04-19T04:38:23;100039.06;;;4.81;88.08
45621;BME280;31345;51.522;10.702;2023-04-19T04:40:56;100043.41;;;4.81;88.60
45621;BME280;31345;51.522;10.702;2023-04-19T04:43:27;100042.09;;;4.64;88.12
45621;BME280;31345;51.522;10.702;2023-04-19T04:46:04;100036.41;;;4.84;86.95
45621;BME280;31345;51.522;10.702;2023-04-19T04:48:40;100044.28;;;4.80;87.24
45621;BME280;31345;51.522;10.702;2023-04-19T04:51:19;100039.00;;;4.84;88.06
45621;BME280;31345;51.522;10.702;2023-04-19T04:53:58;100035.66;;;4.79;87.47
45621;BME280;31345;51.522;10.702;2023-04-19T04:56:40;100039.84;;;4.85;87.00
45621;BME280;31345;51.522;10.702;2023-04-19T04:59:12;100042.22;;;4.93;86.66
45621;BME280;31345;51.522;10.702;2023-04-19T05:02:08;100032.50;;;5.01;85.61
45621;BME280;31345;51.522;10.702;2023-04-19T05:04:44;100033.00;;;5.14;85.99
45621;BME280;31345;51.522;10.702;2023-04-19T05:07:13;100032.69;;;4.93;87.33
45621;BME280;31345;51.522;10.702;2023-04-19T05:09:41;100024.53;;;5.07;86.59
45621;BME280;31345;51.522;10.702;2023-04-19T05:12:29;100034.19;;;5.02;87.68
45621;BME280;31345;51.522;10.702;2023-04-19T05:14:57;100028.06;;;5.05;87.20
45621;BME280;31345;51.522;10.702;2023-04-19T05:17:27;100044.19;;;5.16;87.36
45621;BME280;31345;51.522;10.702;2023-04-19T05:19:56;100041.31;;;5.26;87.37
45621;BME280;31345;51.522;10.702;2023-04-19T05:22:28;100036.38;;;5.18;88.09
45621;BME280;31345;51.522;10.702;2023-04-19T05:24:57;100028.19;;;5.32;87.06
45621;BME280;31345;51.522;10.702;2023-04-19T05:27:32;100027.09;;;5.41;84.63
45621;BME280;31345;51.522;10.702;2023-04-19T05:30:01;100030.91;;;5.57;85.61
45621;BME280;31345;51.522;10.702;2023-04-19T05:32:30;100030.59;;;5.68;85.28
45621;BME280;31345;51.522;10.702;2023-04-19T05:35:11;100026.81;;;5.79;82.66
45621;BME280;31345;51.522;10.702;2023-04-19T05:37:42;100030.81;;;5.89;83.82
45621;BME280;31345;51.522;10.702;2023-04-19T05:40:13;100027.47;;;5.85;81.56
45621;BME280;31345;51.522;10.702;2023-04-19T05:42:53;100029.88;;;5.92;83.11
45621;BME280;31345;51.522;10.702;2023-04-19T05:45:34;100036.25;;;6.08;84.98
45621;BME280;31345;51.522;10.702;2023-04-19T05:48:09;100027.44;;;6.14;79.44
45621;BME280;31345;51.522;10.702;2023-04-19T05:50:59;100035.69;;;6.27;82.07
45621;BME280;31345;51.522;10.702;2023-04-19T05:53:36;100036.38;;;6.32;81.67
45621;BME280;31345;51.522;10.702;2023-04-19T05:56:17;100034.63;;;6.33;81.26
45621;BME280;31345;51.522;10.702;2023-04-19T05:58:55;100036.28;;;6.35;80.70
45621;BME280;31345;51.522;10.702;2023-04-19T06:01:23;100038.97;;;6.32;81.23
45621;BME280;31345;51.522;10.702;2023-04-19T06:03:55;100041.63;;;6.56;80.89
45621;BME280;31345;51.522;10.702;2023-04-19T06:06:29;100032.75;;;6.63;78.89
45621;BME280;31345;51.522;10.702;2023-04-19T06:08:57;100032.66;;;6.66;79.31
45621;BME280;31345;51.522;10.702;2023-04-19T06:11:30;100040.00;;;6.79;79.63
45621;BME280;31345;51.522;10.702;2023-04-19T06:14:02;100031.78;;;6.91;79.50
45621;BME280;31345;51.522;10.702;2023-04-19T06:16:36;100034.88;;;6.77;77.19
45621;BME280;31345;51.522;10.702;2023-04-19T06:19:16;100032.06;;;6.84;78.86
45621;BME280;31345;51.522;10.702;2023-04-19T06:21:45;100031.97;;;6.87;75.57
45621;BME280;31345;51.522;10.702;2023-04-19T06:24:13;100027.44;;;6.92;77.24
45621;BME280;31345;51.522;10.702;2023-04-19T06:26:43;100027.88;;;6.79;75.06
45621;BME280;31345;51.522;10.702;2023-04-19T06:29:21;100027.78;;;6.83;77.01
45621;BME280;31345;51.522;10.702;2023-04-19T06:31:49;100025.22;;;6.81;74.55
45621;BME280;31345;51.522;10.702;2023-04-19T06:34:22;100034.56;;;6.87;76.24
45621;BME280;31345;51.522;10.702;2023-04-19T06:36:53;100028.69;;;7.05;75.50
45621;BME280;31345;51.522;10.702;2023-04-19T06:39:22;100031.59;;;7.22;76.14
45621;BME280;31345;51.522;10.702;2023-04-19T06:41:51;100026.84;;;7.33;75.05
45621;BME280;31345;51.522;10.702;2023-04-19T06:44:24;100029.25;;;7.62;73.70
45621;BME280;31345;51.522;10.702;2023-04-19T06:46:54;100020.91;;;7.52;70.35
45621;BME280;31345;51.522;10.702;2023-04-19T06:49:36;100029.69;;;7.73;71.48
45621;BME280;31345;51.522;10.702;2023-04-19T06:52:09;100021.88;;;7.73;72.32
45621;BME280;31345;51.522;10.702;2023-04-19T06:54:41;100017.75;;;7.90;73.60
45621;BME280;31345;51.522;10.702;2023-04-19T06:57:12;100021.75;;;7.99;74.46
45621;BME280;31345;51.522;10.702;2023-04-19T06:59:44;100019.47;;;8.13;71.11
45621;BME280;31345;51.522;10.702;2023-04-19T07:02:16;99999.28;;;8.18;69.15
45621;BME280;31345;51.522;10.702;2023-04-19T07:04:46;100011.84;;;8.29;67.19
45621;BME280;31345;51.522;10.702;2023-04-19T07:07:27;100013.28;;;8.37;71.27
45621;BME280;31345;51.522;10.702;2023-04-19T07:10:00;100000.97;;;8.19;65.05
45621;BME280;31345;51.522;10.702;2023-04-19T07:12:37;100014.22;;;8.36;69.27
45621;BME280;31345;51.522;10.702;2023-04-19T07:15:19;100001.50;;;8.49;65.90
45621;BME280;31345;51.522;10.702;2023-04-19T07:18:24;100006.41;;;8.56;68.12
45621;BME280;31345;51.522;10.702;2023-04-19T07:20:56;100014.19;;;8.77;69.21
45621;BME280;31345;51.522;10.702;2023-04-19T07:23:30;100003.75;;;8.77;68.79
45621;BME280;31345;51.522;10.702;2023-04-19T07:26:04;100001.28;;;8.74;68.75
45621;BME280;31345;51.522;10.702;2023-04-19T07:28:43;99991.25;;;8.65;65.81
45621;BME280;31345;51.522;10.702;2023-04-19T07:31:29;99999.88;;;8.46;67.13
45621;BME280;31345;51.522;10.702;2023-04-19T07:34:40;99994.59;;;8.47;63.99
45621;BME280;31345;51.522;10.702;2023-04-19T07:37:41;99991.25;;;8.65;68.64
45621;BME280;31345;51.522;10.702;2023-04-19T07:40:41;99982.47;;;8.67;65.92
45621;BME280;31345;51.522;10.702;2023-04-19T07:43:15;99982.66;;;8.83;66.77
45621;BME280;31345;51.522;10.702;2023-04-19T07:45:51;99980.59;;;8.90;63.92
45621;BME280;31345;51.522;10.702;2023-04-19T07:52:52;99979.75;;;8.90;64.88
45621;BME280;31345;51.522;10.702;2023-04-19T07:55:41;99975.41;;;9.09;65.95
45621;BME280;31345;51.522;10.702;2023-04-19T07:58:17;99964.97;;;9.29;61.44
45621;BME280;31345;51.522;10.702;2023-04-19T08:01:06;99966.03;;;9.05;59.90
45621;BME280;31345;51.522;10.702;2023-04-19T08:03:35;99975.91;;;9.37;64.79
45621;BME280;31345;51.522;10.702;2023-04-19T08:06:15;99972.25;;;9.41;62.76
45621;BME280;31345;51.522;10.702;2023-04-19T08:09:17;99975.16;;;9.53;61.52
45621;BME280;31345;51.522;10.702;2023-04-19T08:11:45;99972.09;;;9.06;62.39
45621;BME280;31345;51.522;10.702;2023-04-19T08:14:19;99970.53;;;9.40;66.11
45621;BME280;31345;51.522;10.702;2023-04-19T08:17:02;99964.06;;;9.67;63.77
45621;BME280;31345;51.522;10.702;2023-04-19T08:19:38;99955.69;;;9.60;61.00
45621;BME280;31345;51.522;10.702;2023-04-19T08:22:08;99952.00;;;9.64;59.88
45621;BME280;31345;51.522;10.702;2023-04-19T08:24:45;99956.69;;;9.75;60.96
45621;BME280;31345;51.522;10.702;2023-04-19T08:27:17;99947.56;;;9.66;56.76
45621;BME280;31345;51.522;10.702;2023-04-19T08:30:15;99946.75;;;9.83;59.24
45621;BME280;31345;51.522;10.702;2023-04-19T08:36:01;99943.88;;;10.07;62.12
45621;BME280;31345;51.522;10.702;2023-04-19T08:38:38;99942.03;;;10.09;60.48
45621;BME280;31345;51.522;10.702;2023-04-19T08:41:13;99934.03;;;10.12;58.88
45621;BME280;31345;51.522;10.702;2023-04-19T08:43:46;99932.75;;;10.21;59.49
45621;BME280;31345;51.522;10.702;2023-04-19T08:46:25;99934.31;;;10.42;62.87
45621;BME280;31345;51.522;10.702;2023-04-19T08:49:03;99936.25;;;10.38;60.32
45621;BME280;31345;51.522;10.702;2023-04-19T08:51:43;99931.66;;;10.25;59.03
45621;BME280;31345;51.522;10.702;2023-04-19T08:54:17;99918.78;;;10.38;60.51
45621;BME280;31345;51.522;10.702;2023-04-19T08:56:48;99925.25;;;10.65;59.44
45621;BME280;31345;51.522;10.702;2023-04-19T08:59:35;99919.78;;;10.36;58.84
45621;BME280;31345;51.522;10.702;2023-04-19T09:02:13;99915.28;;;10.56;63.49
45621;BME280;31345;51.522;10.702;2023-04-19T09:04:47;99916.41;;;10.16;56.99
45621;BME280;31345;51.522;10.702;2023-04-19T09:07:22;99909.97;;;10.23;59.17
45621;BME280;31345;51.522;10.702;2023-04-19T09:10:05;99916.72;;;10.27;60.53
45621;BME280;31345;51.522;10.702;2023-04-19T09:12:40;99901.00;;;10.11;58.98
45621;BME280;31345;51.522;10.702;2023-04-19T09:15:13;99895.78;;;10.11;58.04
45621;BME280;31345;51.522;10.702;2023-04-19T09:17:41;99896.13;;;10.55;64.50
45621;BME280;31345;51.522;10.702;2023-04-19T09:20:13;99900.00;;;10.82;66.34
45621;BME280;31345;51.522;10.702;2023-04-19T09:22:41;99884.34;;;10.64;58.66
45621;BME280;31345;51.522;10.702;2023-04-19T09:25:08;99899.09;;;10.65;61.38
45621;BME280;31345;51.522;10.702;2023-04-19T09:27:42;99885.03;;;10.84;63.42
45621;BME280;31345;51.522;10.702;2023-04-19T09:30:20;99882.94;;;10.90;64.26
45621;BME280;31345;51.522;10.702;2023-04-19T09:32:56;99877.13;;;10.85;60.23
45621;BME280;31345;51.522;10.702;2023-04-19T09:35:39;99886.13;;;10.63;59.21
45621;BME280;31345;51.522;10.702;2023-04-19T09:38:12;99891.72;;;10.73;64.08
45621;BME280;31345;51.522;10.702;2023-04-19T09:40:41;99875.09;;;10.90;61.82
45621;BME280;31345;51.522;10.702;2023-04-19T09:43:22;99877.63;;;11.08;60.70
45621;BME280;31345;51.522;10.702;2023-04-19T09:45:50;99884.13;;;11.17;64.85
45621;BME280;31345;51.522;10.702;2023-04-19T09:48:22;99876.03;;;10.73;58.73
45621;BME280;31345;51.522;10.702;2023-04-19T09:50:51;99868.94;;;10.91;60.46
45621;BME280;31345;51.522;10.702;2023-04-19T09:53:20;99881.00;;;10.94;60.11
45621;BME280;31345;51.522;10.702;2023-04-19T09:55:53;99887.25;;;11.24;63.38
45621;BME280;31345;51.522;10.702;2023-04-19T09:58:27;99878.56;;;11.23;59.33
45621;BME280;31345;51.522;10.702;2023-04-19T10:01:00;99874.53;;;11.01;59.86
45621;BME280;31345;51.522;10.702;2023-04-19T10:03:32;99880.72;;;11.47;64.27
45621;BME280;31345;51.522;10.702;2023-04-19T10:06:00;99864.59;;;11.69;60.01
45621;BME280;31345;51.522;10.702;2023-04-19T10:08:34;99870.31;;;11.46;62.96
45621;BME280;31345;51.522;10.702;2023-04-19T10:11:03;99868.09;;;11.85;63.41
45621;BME280;31345;51.522;10.702;2023-04-19T10:13:32;99866.69;;;11.79;62.07
45621;BME280;31345;51.522;10.702;2023-04-19T10:16:06;99851.28;;;11.58;58.54
45621;BME280;31345;51.522;10.702;2023-04-19T10:18:39;99862.47;;;11.46;59.13
45621;BME280;31345;51.522;10.702;2023-04-19T10:21:12;99854.38;;;11.65;63.77
45621;BME280;31345;51.522;10.702;2023-04-19T10:23:42;99855.19;;;12.12;64.55
45621;BME280;31345;51.522;10.702;2023-04-19T10:26:14;99841.97;;;11.99;59.45
45621;BME280;31345;51.522;10.702;2023-04-19T10:28:48;99851.81;;;12.25;62.10
45621;BME280;31345;51.522;10.702;2023-04-19T10:31:19;99839.38;;;12.14;62.10
45621;BME280;31345;51.522;10.702;2023-04-19T10:33:49;99831.94;;;12.35;60.31
45621;BME280;31345;51.522;10.702;2023-04-19T10:36:18;99824.50;;;11.83;56.61
45621;BME280;31345;51.522;10.702;2023-04-19T10:38:51;99816.88;;;11.95;57.34
45621;BME280;31345;51.522;10.702;2023-04-19T10:41:55;99811.75;;;12.08;56.42
45621;BME280;31345;51.522;10.702;2023-04-19T10:44:30;99789.72;;;12.25;59.51
45621;BME280;31345;51.522;10.702;2023-04-19T10:46:58;99798.13;;;12.45;58.97
45621;BME280;31345;51.522;10.702;2023-04-19T10:49:31;99796.28;;;12.18;54.93
45621;BME280;31345;51.522;10.702;2023-04-19T10:52:26;99794.72;;;12.15;56.03
45621;BME280;31345;51.522;10.702;2023-04-19T10:54:55;99789.28;;;12.04;54.86
45621;BME280;31345;51.522;10.702;2023-04-19T10:58:00;99789.00;;;12.65;55.27
45621;BME280;31345;51.522;10.702;2023-04-19T11:00:29;99785.09;;;12.58;53.89
45621;BME280;31345;51.522;10.702;2023-04-19T11:06:14;99784.28;;;12.28;53.59
45621;BME280;31345;51.522;10.702;2023-04-19T11:08:48;99786.63;;;12.18;55.38
45621;BME280;31345;51.522;10.702;2023-04-19T11:11:20;99780.09;;;12.26;52.06
45621;BME280;31345;51.522;10.702;2023-04-19T11:13:54;99795.75;;;11.82;51.28
45621;BME280;31345;51.522;10.702;2023-04-19T11:16:24;99795.88;;;10.88;53.87
45621;BME280;31345;51.522;10.702;2023-04-19T11:18:52;99789.22;;;11.13;51.11
45621;BME280;31345;51.522;10.702;2023-04-19T11:21:21;99772.53;;;11.61;52.04
45621;BME280;31345;51.522;10.702;2023-04-19T11:24:04;99778.78;;;12.18;55.82
45621;BME280;31345;51.522;10.702;2023-04-19T11:26:32;99767.75;;;12.70;51.19
45621;BME280;31345;51.522;10.702;2023-04-19T11:29:04;99754.75;;;13.09;53.75
45621;BME280;31345;51.522;10.702;2023-04-19T11:31:43;99746.63;;;13.53;55.84
45621;BME280;31345;51.522;10.702;2023-04-19T11:34:16;99761.16;;;13.05;55.01
45621;BME280;31345;51.522;10.702;2023-04-19T11:36:50;99768.28;;;13.03;53.35
45621;BME280;31345;51.522;10.702;2023-04-19T11:39:23;99764.38;;;12.95;56.35
45621;BME280;31345;51.522;10.702;2023-04-19T11:41:51;99762.88;;;13.19;54.06
45621;BME280;31345;51.522;10.702;2023-04-19T11:44:23;99749.88;;;13.43;53.15
45621;BME280;31345;51.522;10.702;2023-04-19T11:47:03;99750.22;;;13.65;52.98
45621;BME280;31345;51.522;10.702;2023-04-19T11:49:36;99759.25;;;13.07;52.64
45621;BME280;31345;51.522;10.702;2023-04-19T11:52:09;99751.94;;;13.25;53.16
45621;BME280;31345;51.522;10.702;2023-04-19T11:54:41;99748.78;;;13.20;52.56
45621;BME280;31345;51.522;10.702;2023-04-19T11:57:26;99744.94;;;13.39;51.56
45621;BME280;31345;51.522;10.702;2023-04-19T12:00:04;99737.19;;;13.50;53.72
45621;BME280;31345;51.522;10.702;2023-04-19T12:02:42;99727.69;;;13.47;52.24
45621;BME280;31345;51.522;10.702;2023-04-19T12:05:15;99746.47;;;13.15;52.64
45621;BME280;31345;51.522;10.702;2023-04-19T12:07:59;99735.44;;;12.55;50.93
45621;BME280;31345;51.522;10.702;2023-04-19T12:10:27;99748.94;;;12.91;52.42
45621;BME280;31345;51.522;10.702;2023-04-19T12:12:56;99734.09;;;13.17;54.20
45621;BME280;31345;51.522;10.702;2023-04-19T12:15:39;99740.50;;;13.39;51.50
45621;BME280;31345;51.522;10.702;2023-04-19T12:18:09;99737.09;;;12.98;53.01
45621;BME280;31345;51.522;10.702;2023-04-19T12:20:44;99733.28;;;12.89;49.25
45621;BME280;31345;51.522;10.702;2023-04-19T12:23:18;99719.03;;;12.66;47.25
45621;BME280;31345;51.522;10.702;2023-04-19T12:25:51;99716.00;;;12.44;49.56
45621;BME280;31345;51.522;10.702;2023-04-19T12:28:24;99710.63;;;12.18;52.51
45621;BME280;31345;51.522;10.702;2023-04-19T12:30:56;99716.91;;;12.98;57.04
45621;BME280;31345;51.522;10.702;2023-04-19T12:33:25;99708.19;;;13.39;54.35
45621;BME280;31345;51.522;10.702;2023-04-19T12:35:53;99718.63;;;13.00;51.47
45621;BME280;31345;51.522;10.702;2023-04-19T12:38:25;99714.16;;;12.32;52.24
45621;BME280;31345;51.522;10.702;2023-04-19T12:40:53;99715.66;;;12.21;52.86
45621;BME280;31345;51.522;10.702;2023-04-19T12:43:26;99705.59;;;12.70;51.30
45621;BME280;31345;51.522;10.702;2023-04-19T12:46:00;99696.78;;;12.99;49.87
45621;BME280;31345;51.522;10.702;2023-04-19T12:48:29;99684.91;;;13.19;48.41
45621;BME280;31345;51.522;10.702;2023-04-19T12:50:57;99693.94;;;13.56;49.10
45621;BME280;31345;51.522;10.702;2023-04-19T12:53:29;99697.84;;;13.22;48.82
45621;BME280;31345;51.522;10.702;2023-04-19T12:55:57;99702.81;;;12.31;49.25
45621;BME280;31345;51.522;10.702;2023-04-19T12:58:29;99700.53;;;11.68;48.27
45621;BME280;31345;51.522;10.702;2023-04-19T13:01:02;99706.28;;;11.30;54.85
45621;BME280;31345;51.522;10.702;2023-04-19T13:03:36;99686.69;;;11.95;51.47
45621;BME280;31345;51.522;10.702;2023-04-19T13:06:09;99689.06;;;12.83;49.78
45621;BME280;31345;51.522;10.702;2023-04-19T13:08:38;99677.75;;;12.55;50.59
45621;BME280;31345;51.522;10.702;2023-04-19T13:11:11;99665.31;;;11.87;48.95
45621;BME280;31345;51.522;10.702;2023-04-19T13:13:44;99669.63;;;11.59;51.96
45621;BME280;31345;51.522;10.702;2023-04-19T13:16:11;99673.09;;;12.03;57.98
45621;BME280;31345;51.522;10.702;2023-04-19T13:18:45;99660.28;;;12.68;51.14
45621;BME280;31345;51.522;10.702;2023-04-19T13:21:18;99650.28;;;13.27;50.33
45621;BME280;31345;51.522;10.702;2023-04-19T13:23:51;99642.94;;;13.45;47.32
45621;BME280;31345;51.522;10.702;2023-04-19T13:26:23;99658.56;;;13.73;47.19
45621;BME280;31345;51.522;10.702;2023-04-19T13:28:56;99644.19;;;13.53;50.96
45621;BME280;31345;51.522;10.702;2023-04-19T13:31:28;99643.19;;;12.89;46.85
45621;BME280;31345;51.522;10.702;2023-04-19T13:34:03;99650.72;;;12.12;49.41
45621;BME280;31345;51.522;10.702;2023-04-19T13:36:35;99642.03;;;11.97;52.02